createdAt,value
2023-01-02T09:37:10.387Z,6.34
2023-01-02T09:42:11.638Z,5.94
2023-01-02T09:47:12.924Z,6.34
2023-01-02T09:52:14.108Z,6.90
2023-01-02T09:57:15.331Z,6.90
2023-01-02T10:02:16.532Z,6.27
2023-01-02T10:07:17.690Z,7.01
2023-01-02T10:12:18.912Z,6.27
2023-01-02T10:17:20.188Z,6.90
2023-01-02T10:22:21.415Z,6.90
2023-01-02T10:27:22.533Z,6.69
2023-01-02T10:32:24.622Z,6.69
2023-01-02T10:37:23.940Z,7.65
2023-01-02T10:42:25.183Z,7.44
2023-01-02T10:47:26.388Z,7.01
2023-01-02T10:52:28.610Z,7.01
2023-01-02T10:57:27.699Z,7.74
2023-01-02T11:02:29.865Z,7.74
2023-01-02T11:07:29.208Z,7.74
2023-01-02T11:12:30.412Z,7.74
2023-01-02T11:17:31.565Z,7.52
2023-01-02T11:22:32.709Z,7.52
2023-01-02T11:27:33.891Z,7.52
2023-01-02T11:32:35.998Z,7.52
2023-01-02T11:37:35.361Z,7.52
2023-01-02T11:42:36.604Z,7.29
2023-01-02T11:47:37.877Z,7.29
2023-01-02T11:52:38.983Z,7.52
2023-01-02T11:57:40.200Z,7.52
2023-01-02T12:02:42.359Z,7.74
2023-01-02T12:07:41.595Z,7.52
2023-01-02T12:12:42.901Z,7.52
2023-01-02T12:17:44.122Z,7.29
2023-01-02T12:22:45.406Z,7.06
2023-01-02T12:27:46.644Z,7.29
2023-01-02T12:32:46.769Z,6.83
2023-01-02T12:37:48.061Z,7.29
2023-01-02T12:42:50.181Z,7.06
2023-01-02T12:47:49.277Z,6.83
2023-01-02T12:52:50.542Z,6.59
2023-01-02T12:57:51.824Z,7.29
2023-01-02T13:02:53.093Z,7.29
2023-01-02T13:07:55.403Z,7.29
2023-01-02T13:12:54.614Z,7.05
2023-01-02T13:17:55.711Z,6.35
2023-01-02T13:22:56.966Z,6.83
2023-01-02T13:27:59.137Z,7.29
2023-01-02T13:32:58.238Z,7.52
2023-01-02T13:37:59.444Z,7.29
2023-01-02T13:43:01.515Z,7.74
2023-01-02T13:47:59.792Z,7.01
2023-01-02T13:53:00.956Z,7.96
2023-01-02T13:58:02.212Z,7.01
2023-01-02T14:03:05.682Z,7.96
2023-01-02T14:08:02.977Z,7.96
2023-01-02T14:13:04.234Z,7.23
2023-01-02T14:18:05.504Z,7.01
2023-01-02T14:23:06.756Z,7.23
2023-01-02T14:28:08.842Z,7.23
2023-01-02T14:33:08.940Z,7.44
2023-01-02T14:38:08.036Z,7.23
2023-01-02T14:43:09.440Z,7.65
2023-01-02T14:48:10.675Z,7.65
2023-01-02T14:53:12.218Z,7.65
2023-01-02T14:58:12.305Z,7.65
2023-01-02T15:03:11.685Z,7.10
2023-01-02T15:08:13.065Z,7.10
2023-01-02T15:13:16.158Z,7.10
2023-01-02T15:18:15.471Z,6.90
2023-01-02T15:23:16.727Z,7.10
2023-01-02T15:28:18.009Z,7.10
2023-01-02T15:33:19.248Z,7.31
2023-01-02T15:38:20.349Z,7.10
2023-01-02T15:43:22.465Z,7.10
2023-01-02T15:48:22.569Z,7.51
2023-01-02T15:53:21.804Z,7.31
2023-01-02T15:58:23.089Z,7.10
2023-01-02T16:03:23.325Z,7.31
2023-01-02T16:08:25.341Z,7.31
2023-01-02T16:13:26.525Z,7.31
2023-01-02T16:18:27.799Z,7.10
2023-01-02T16:23:29.061Z,6.90
2023-01-02T16:28:36.154Z,6.90
2023-01-02T16:33:30.327Z,6.69
2023-01-02T16:38:31.506Z,6.69
2023-01-02T16:43:35.528Z,6.90
2023-01-02T16:48:32.629Z,6.90
2023-01-02T16:53:33.918Z,6.90
2023-01-02T16:58:35.141Z,7.10
2023-01-02T17:03:36.513Z,7.10
2023-01-02T17:08:37.713Z,6.69
2023-01-02T17:13:39.912Z,6.90
2023-01-02T17:18:39.158Z,6.90
2023-01-02T17:23:40.387Z,7.10
2023-01-02T17:28:42.568Z,6.14
2023-01-02T17:33:41.769Z,7.10
2023-01-02T17:38:43.023Z,6.14
2023-01-02T17:44:01.880Z,6.14
2023-01-02T17:48:44.325Z,6.14
2023-01-02T17:53:45.521Z,6.14
2023-01-02T17:58:46.707Z,5.94
2023-01-02T18:03:47.863Z,6.90
2023-01-02T18:08:48.993Z,5.94
2023-01-02T18:13:51.153Z,6.90
2023-01-02T18:18:50.334Z,6.48
2023-01-02T18:23:51.495Z,5.84
2023-01-02T18:28:52.633Z,6.06
2023-01-02T18:33:53.859Z,6.79
2023-01-02T18:38:55.017Z,6.06
2023-01-02T18:43:56.233Z,6.06
2023-01-02T18:48:57.597Z,6.57
2023-01-02T18:53:58.938Z,6.06
2023-01-02T18:59:00.139Z,5.84
2023-01-02T19:04:01.345Z,6.06
2023-01-02T19:09:02.529Z,5.84
2023-01-02T19:14:03.689Z,6.34
2023-01-02T19:19:04.857Z,6.79
2023-01-02T19:24:06.243Z,6.34
2023-01-02T19:29:05.698Z,6.34
2023-01-02T19:34:07.222Z,6.34
2023-01-02T19:39:06.464Z,5.62
2023-01-02T19:44:07.632Z,5.84
2023-01-02T19:49:08.779Z,6.06
2023-01-02T19:54:09.227Z,6.27
2023-01-02T19:59:12.918Z,6.27
2023-01-02T20:04:11.079Z,6.27
2023-01-02T20:09:10.617Z,6.27
2023-01-02T20:14:09.902Z,6.48
2023-01-02T20:19:11.196Z,6.48
2023-01-02T20:24:12.411Z,6.69
2023-01-02T20:29:13.565Z,5.94
2023-01-02T20:34:14.958Z,5.94
2023-01-02T20:39:14.408Z,6.14
2023-01-02T20:44:15.829Z,6.14
2023-01-02T20:49:19.033Z,5.94
2023-01-02T20:54:16.113Z,6.14
2023-01-02T20:59:17.541Z,6.14
2023-01-02T21:04:23.374Z,6.90
2023-01-02T21:09:18.834Z,6.48
2023-01-02T21:14:19.975Z,6.69
2023-01-02T21:19:21.432Z,6.90
2023-01-02T21:24:20.944Z,6.69
2023-01-02T21:29:20.273Z,6.90
2023-01-02T21:34:22.488Z,7.10
2023-01-02T21:39:21.674Z,7.10
2023-01-02T21:44:22.874Z,7.10
2023-01-02T21:49:24.036Z,7.10
2023-01-02T21:54:25.228Z,7.10
2023-01-02T21:59:27.447Z,7.31
2023-01-02T22:04:26.691Z,7.31
2023-01-02T22:09:27.932Z,7.31
2023-01-02T22:14:29.158Z,7.70
2023-01-02T22:19:30.498Z,7.70
2023-01-02T22:24:32.634Z,7.70
2023-01-02T22:30:00.501Z,7.70
2023-01-02T22:34:31.816Z,7.70
2023-01-02T22:39:32.982Z,7.51
2023-01-02T22:44:34.123Z,7.31
2023-01-02T22:49:36.309Z,7.51
2023-01-02T22:54:35.456Z,7.51
2023-01-02T22:59:36.662Z,7.70
2023-01-02T23:04:37.918Z,7.70
2023-01-02T23:09:39.132Z,7.90
2023-01-02T23:14:40.320Z,7.70
2023-01-02T23:19:41.523Z,7.90
2023-01-02T23:24:41.680Z,8.28
2023-01-02T23:29:42.855Z,7.31
2023-01-02T23:34:45.059Z,7.50
2023-01-02T23:39:44.257Z,7.31
2023-01-02T23:44:45.440Z,8.28
2023-01-02T23:49:46.605Z,8.28
2023-01-02T23:54:47.778Z,7.50
2023-01-02T23:59:49.234Z,7.68
